Time;durP1;ratioP1;P1;durP2;ratioP2;P2;SDS_P1;SDS_P2;PMS_P1;PMS_P2;Temp;Humidity;BMP_temperature;BMP_pressure;BME280_temperature;BME280_humidity;BME280_pressure;Samples;Min_cycle;Max_cycle;Signal;HPM_P1;HPM_P2
2021/03/22 00:00:57;;;;;;;12.55;2.45;;;4.70;99.90;;;;;;12371628;28;20101;-44
2021/03/22 00:06:59;;;;;;;20.95;3.10;;;4.80;99.90;;;;;;12364934;28;20050;-42
2021/03/22 00:13:01;;;;;;;22.00;3.85;;;4.80;99.90;;;;;;12372606;28;20050;-42
2021/03/22 00:19:06;;;;;;;18.52;2.97;;;4.80;99.90;;;;;;12371766;28;20088;-42
2021/03/22 00:25:08;;;;;;;20.55;2.80;;;4.80;99.90;;;;;;12366475;28;20053;-42
2021/03/22 00:31:12;;;;;;;26.83;3.63;;;4.90;99.90;;;;;;12372310;28;21007;-42
2021/03/22 00:37:14;;;;;;;23.65;3.30;;;4.80;99.90;;;;;;12374457;28;20070;-42
2021/03/22 00:43:16;;;;;;;18.67;3.58;;;4.90;99.90;;;;;;12363813;28;20137;-44
2021/03/22 00:49:26;;;;;;;20.40;3.45;;;4.90;99.90;;;;;;12363644;28;20144;-42
2021/03/22 00:55:27;;;;;;;21.02;2.88;;;4.90;99.90;;;;;;12367241;28;20600;-42
2021/03/22 01:01:29;;;;;;;14.60;2.88;;;4.90;99.90;;;;;;12371256;28;20550;-42
2021/03/22 01:07:30;;;;;;;20.73;2.53;;;4.90;99.90;;;;;;12378700;28;20753;-42
2021/03/22 01:13:41;;;;;;;20.67;3.85;;;4.90;99.90;;;;;;12375344;28;20054;-42
2021/03/22 01:19:51;;;;;;;12.68;2.42;;;4.90;99.90;;;;;;12376937;28;20728;-42
2021/03/22 01:25:52;;;;;;;18.65;3.03;;;4.90;99.90;;;;;;12384444;28;20055;-42
2021/03/22 01:31:57;;;;;;;19.10;2.88;;;4.90;99.90;;;;;;12382655;28;20292;-42
2021/03/22 01:37:58;;;;;;;;;;;4.70;99.90;;;;;;12384748;28;20156;-42
2021/03/22 01:44:24;;;;;;;25.85;3.38;;;4.60;99.90;;;;;;12374693;28;19984;-42
2021/03/22 01:50:28;;;;;;;17.40;3.03;;;4.60;99.90;;;;;;12371010;28;20070;-43
2021/03/22 01:56:36;;;;;;;20.90;2.97;;;4.60;99.90;;;;;;12376273;28;20050;-42
2021/03/22 02:02:39;;;;;;;20.05;3.63;;;4.50;99.90;;;;;;12366933;28;20046;-43
2021/03/22 02:08:44;;;;;;;19.60;3.97;;;4.60;99.90;;;;;;12371137;28;20050;-42
2021/03/22 02:14:46;;;;;;;;;;;4.50;99.90;;;;;;12379036;28;20056;-42
2021/03/22 02:21:09;;;;;;;18.35;3.70;;;4.50;99.90;;;;;;12370654;28;19928;-41
2021/03/22 02:27:44;;;;;;;23.33;3.97;;;4.40;99.90;;;;;;12371477;28;20401;-42
2021/03/22 02:33:54;;;;;;;23.92;4.30;;;4.40;99.90;;;;;;12375980;28;20054;-42
2021/03/22 02:39:59;;;;;;;19.75;3.90;;;4.50;99.90;;;;;;12362818;28;20057;-42
2021/03/22 02:46:00;;;;;;;31.00;4.72;;;4.50;99.90;;;;;;12377363;28;20477;-43
2021/03/22 02:52:27;;;;;;;23.52;4.22;;;4.40;99.90;;;;;;12374345;28;20100;-42
2021/03/22 02:58:56;;;;;;;23.00;3.85;;;4.50;99.90;;;;;;12374835;28;20141;-42
2021/03/22 03:05:12;;;;;;;22.45;4.50;;;4.40;99.90;;;;;;12376178;28;20129;-42
2021/03/22 03:11:14;;;;;;;19.05;4.13;;;4.40;99.90;;;;;;12377355;28;20460;-41
2021/03/22 03:17:15;;;;;;;18.02;4.20;;;4.40;99.90;;;;;;12368697;28;20141;-42
2021/03/22 03:23:17;;;;;;;19.55;4.45;;;4.30;99.90;;;;;;12368716;28;20453;-42
2021/03/22 03:29:20;;;;;;;22.65;4.20;;;4.50;99.90;;;;;;12373287;28;20050;-41
2021/03/22 03:35:26;;;;;;;21.40;4.55;;;4.50;99.90;;;;;;12366183;28;20545;-42
2021/03/22 03:41:27;;;;;;;17.25;4.05;;;4.50;99.90;;;;;;12368756;28;20103;-42
2021/03/22 03:47:28;;;;;;;23.40;5.28;;;4.50;99.90;;;;;;12368737;28;20621;-42
2021/03/22 03:53:31;;;;;;;23.30;4.40;;;4.50;99.90;;;;;;12375864;28;20095;-42
2021/03/22 03:59:32;;;;;;;17.48;3.95;;;4.50;99.90;;;;;;12361844;28;20104;-42
2021/03/22 04:05:33;;;;;;;23.10;4.47;;;4.60;99.90;;;;;;12373565;28;20064;-42
2021/03/22 04:11:44;;;;;;;14.98;3.63;;;4.50;99.90;;;;;;12368252;28;20113;-42
2021/03/22 04:17:45;;;;;;;22.02;3.75;;;4.40;99.90;;;;;;12363267;28;20095;-42
2021/03/22 04:23:48;;;;;;;18.80;4.65;;;4.40;99.90;;;;;;12366416;28;20050;-42
2021/03/22 04:29:50;;;;;;;13.13;3.70;;;4.30;99.90;;;;;;12366051;28;20130;-43
2021/03/22 04:35:51;;;;;;;18.63;3.55;;;4.30;99.90;;;;;;12369017;28;20057;-42
2021/03/22 04:41:53;;;;;;;18.95;4.10;;;4.30;99.90;;;;;;12375955;28;20717;-42
2021/03/22 04:47:54;;;;;;;19.17;5.18;;;4.30;99.90;;;;;;12373804;28;20145;-42
2021/03/22 04:53:56;;;;;;;14.73;4.75;;;4.30;99.90;;;;;;12378002;28;20050;-43
2021/03/22 04:59:58;;;;;;;17.23;4.93;;;4.30;99.90;;;;;;12372522;28;20133;-42
2021/03/22 05:05:59;;;;;;;17.80;5.25;;;4.40;99.90;;;;;;12369039;28;20053;-42
2021/03/22 05:12:03;;;;;;;15.63;5.05;;;4.40;99.90;;;;;;12377124;28;20044;-43
2021/03/22 05:18:06;;;;;;;16.08;5.47;;;4.40;99.90;;;;;;12378100;28;20058;-43
2021/03/22 05:24:08;;;;;;;23.75;6.15;;;4.50;99.90;;;;;;12374551;28;20058;-42
2021/03/22 05:30:10;;;;;;;18.05;6.18;;;4.50;99.90;;;;;;12374874;28;20058;-43
2021/03/22 05:36:11;;;;;;;26.40;7.20;;;4.50;99.90;;;;;;12370117;28;20054;-42
2021/03/22 05:42:39;;;;;;;21.83;6.97;;;4.60;99.90;;;;;;12370885;28;20058;-43
2021/03/22 05:49:03;;;;;;;23.27;6.68;;;4.60;99.90;;;;;;12372228;28;20561;-43
2021/03/22 05:55:35;;;;;;;19.60;6.30;;;4.70;99.90;;;;;;12359217;28;20050;-42
2021/03/22 06:01:45;;;;;;;20.80;5.72;;;4.70;99.90;;;;;;12368685;28;20087;-43
2021/03/22 06:07:51;;;;;;;19.80;5.47;;;4.80;99.90;;;;;;12378728;28;20089;-42
2021/03/22 06:14:17;;;;;;;21.20;6.20;;;4.80;99.90;;;;;;12377022;28;20498;-42
2021/03/22 06:20:25;;;;;;;18.27;4.75;;;4.90;99.90;;;;;;12361810;28;20148;-42
2021/03/22 06:26:39;;;;;;;15.68;4.78;;;4.90;99.90;;;;;;12376202;28;20575;-42
2021/03/22 06:32:48;;;;;;;16.63;4.32;;;5.00;99.90;;;;;;12368436;28;20054;-42
2021/03/22 06:38:56;;;;;;;15.45;4.43;;;5.10;99.90;;;;;;12371511;28;20053;-41
2021/03/22 06:44:58;;;;;;;21.63;4.75;;;5.10;99.90;;;;;;12376050;28;20039;-42
2021/03/22 06:51:02;;;;;;;11.05;4.00;;;5.20;99.90;;;;;;12364140;28;20095;-44
2021/03/22 06:57:07;;;;;;;14.55;3.65;;;5.20;99.90;;;;;;12368459;28;20116;-43
2021/03/22 07:03:26;;;;;;;15.82;3.90;;;5.20;99.90;;;;;;12366083;28;20074;-42
2021/03/22 07:09:32;;;;;;;14.23;3.70;;;5.10;99.90;;;;;;12369822;28;20474;-42
2021/03/22 07:15:36;;;;;;;11.90;3.90;;;5.40;99.90;;;;;;12365563;28;20054;-42
2021/03/22 07:21:56;;;;;;;17.88;4.47;;;5.30;99.90;;;;;;12367535;28;20061;-44
2021/03/22 07:28:10;;;;;;;15.55;4.57;;;5.30;99.90;;;;;;12370624;28;20142;-42
2021/03/22 07:34:26;;;;;;;20.77;4.20;;;5.40;99.90;;;;;;12364604;28;20050;-42
2021/03/22 07:40:55;;;;;;;13.75;4.25;;;5.50;99.90;;;;;;12371441;28;20137;-46
2021/03/22 07:47:27;;;;;;;17.13;5.10;;;5.70;99.90;;;;;;12370870;28;20056;-44
2021/03/22 07:53:31;;;;;;;15.60;4.38;;;5.70;99.90;;;;;;12370759;28;20046;-43
2021/03/22 07:59:42;;;;;;;12.15;3.80;;;5.70;99.90;;;;;;12365589;28;20549;-42
2021/03/22 08:06:12;;;;;;;14.25;4.18;;;5.80;99.90;;;;;;12368874;28;20475;-42
2021/03/22 08:12:47;;;;;;;12.95;4.10;;;5.80;99.90;;;;;;12360776;28;20084;-42
2021/03/22 08:18:49;;;;;;;11.48;3.47;;;5.80;99.90;;;;;;12378565;28;20174;-43
2021/03/22 08:25:19;;;;;;;12.18;3.97;;;5.80;99.90;;;;;;12367086;28;20141;-42
2021/03/22 08:31:34;;;;;;;12.73;3.38;;;5.80;99.90;;;;;;12369833;28;20262;-42
2021/03/22 08:38:02;;;;;;;8.85;4.25;;;5.80;99.90;;;;;;12371806;28;20173;-42
2021/03/22 08:44:17;;;;;;;8.27;2.67;;;6.20;99.90;;;;;;12373014;28;20195;-42
2021/03/22 08:50:22;;;;;;;9.77;3.03;;;6.20;99.90;;;;;;12360002;28;20128;-42
2021/03/22 08:56:35;;;;;;;6.68;2.40;;;5.90;99.90;;;;;;12362024;28;20054;-42
2021/03/22 09:02:38;;;;;;;8.60;3.00;;;5.60;99.90;;;;;;12370233;28;20085;-42
2021/03/22 09:09:01;;;;;;;6.47;2.58;;;5.60;99.90;;;;;;12366062;28;20107;-43
2021/03/22 09:15:23;;;;;;;11.07;3.13;;;5.50;99.90;;;;;;12366843;28;22326;-42
2021/03/22 09:21:24;;;;;;;9.13;2.60;;;5.60;99.90;;;;;;12354208;28;20054;-42
2021/03/22 09:27:31;;;;;;;7.55;2.53;;;5.70;99.90;;;;;;12378140;28;20058;-43
2021/03/22 09:33:53;;;;;;;6.45;2.10;;;5.70;99.90;;;;;;12374957;28;20038;-42
2021/03/22 09:39:54;;;;;;;7.22;1.90;;;5.70;99.90;;;;;;12377068;28;20047;-43
2021/03/22 09:45:56;;;;;;;11.93;2.10;;;5.90;99.90;;;;;;12371176;28;20490;-43
2021/03/22 09:52:24;;;;;;;6.22;1.80;;;6.10;99.90;;;;;;12366061;28;20142;-44
2021/03/22 09:58:26;;;;;;;5.75;2.45;;;6.50;99.90;;;;;;12371212;28;20113;-43
2021/03/22 10:04:31;;;;;;;6.93;2.10;;;6.60;99.90;;;;;;12369063;28;20100;-42
2021/03/22 10:10:32;;;;;;;4.38;1.70;;;7.00;99.90;;;;;;12366009;28;20556;-43
2021/03/22 10:16:40;;;;;;;5.03;1.63;;;6.90;99.90;;;;;;12364476;28;20084;-42
2021/03/22 10:22:43;;;;;;;5.28;1.77;;;6.60;99.90;;;;;;12376889;28;20137;-42
2021/03/22 10:28:45;;;;;;;5.40;1.88;;;6.40;99.90;;;;;;12375378;28;20038;-43
2021/03/22 10:34:54;;;;;;;3.88;1.38;;;6.40;99.90;;;;;;12375038;28;20046;-42
2021/03/22 10:40:58;;;;;;;5.55;1.88;;;6.70;99.90;;;;;;12364041;28;20045;-42
2021/03/22 10:47:13;;;;;;;4.75;1.48;;;7.10;99.90;;;;;;12365611;28;20054;-42
2021/03/22 10:53:17;;;;;;;3.95;1.90;;;7.30;99.90;;;;;;12367999;28;20126;-42
2021/03/22 10:59:27;;;;;;;5.38;2.15;;;7.10;99.90;;;;;;12375225;28;20136;-45
2021/03/22 11:05:37;;;;;;;3.47;2.03;;;6.80;99.90;;;;;;12377911;28;20050;-42
2021/03/22 11:11:39;;;;;;;5.72;2.20;;;6.80;99.90;;;;;;12380252;28;20050;-45
2021/03/22 11:17:48;;;;;;;4.28;2.05;;;7.20;99.90;;;;;;12366115;28;20134;-43
2021/03/22 11:23:53;;;;;;;3.97;1.60;;;7.60;99.90;;;;;;12369843;28;20054;-43
2021/03/22 11:29:57;;;;;;;3.25;1.63;;;7.90;99.90;;;;;;12377422;28;20145;-43
2021/03/22 11:36:14;;;;;;;2.58;1.42;;;8.00;99.90;;;;;;12372512;28;20673;-45
2021/03/22 11:42:27;;;;;;;5.25;2.10;;;8.10;99.90;;;;;;12369883;28;20084;-43
2021/03/22 11:48:31;;;;;;;2.20;1.20;;;8.10;99.90;;;;;;12375589;28;20057;-43
2021/03/22 11:54:51;;;;;;;2.67;1.20;;;7.50;99.90;;;;;;12362653;28;20096;-42
2021/03/22 12:00:53;;;;;;;3.88;1.13;;;6.90;99.90;;;;;;12369477;28;20060;-42
2021/03/22 12:07:05;;;;;;;2.50;1.10;;;7.00;99.90;;;;;;12361331;28;20057;-42
2021/03/22 12:13:08;;;;;;;3.65;1.20;;;7.30;99.90;;;;;;12368834;28;20053;-43
2021/03/22 12:19:27;;;;;;;3.72;1.48;;;7.60;99.90;;;;;;12370555;28;20068;-43
2021/03/22 12:25:32;;;;;;;2.58;1.30;;;7.70;99.90;;;;;;12374810;28;20045;-42
2021/03/22 12:31:48;;;;;;;6.50;2.08;;;7.70;99.90;;;;;;12358637;28;20108;-43
2021/03/22 12:37:52;;;;;;;4.93;1.70;;;8.10;99.90;;;;;;12371246;28;20053;-42
2021/03/22 12:43:54;;;;;;;4.88;1.67;;;8.50;99.90;;;;;;12369219;28;20061;-43
2021/03/22 12:49:56;;;;;;;3.50;1.95;;;8.30;99.90;;;;;;12369338;28;20536;-43
2021/03/22 12:55:59;;;;;;;3.35;1.75;;;8.20;99.90;;;;;;12372758;28;20132;-42
2021/03/22 13:02:09;;;;;;;4.38;1.90;;;8.10;99.90;;;;;;12376299;28;20088;-42
2021/03/22 13:08:12;;;;;;;4.38;1.98;;;8.00;99.90;;;;;;12374004;28;20041;-43
2021/03/22 13:14:18;;;;;;;3.85;2.05;;;7.70;99.90;;;;;;12380126;28;20103;-42
2021/03/22 13:20:20;;;;;;;6.47;1.98;;;7.80;99.90;;;;;;12375347;28;20092;-43
2021/03/22 13:26:22;;;;;;;7.05;1.73;;;8.10;99.90;;;;;;12374899;28;20306;-45
2021/03/22 13:32:24;;;;;;;5.95;2.90;;;8.20;99.90;;;;;;12379169;28;20049;-43
2021/03/22 13:38:30;;;;;;;5.82;1.90;;;8.30;99.90;;;;;;12378152;28;20054;-43
2021/03/22 13:44:31;;;;;;;8.07;2.28;;;8.30;99.90;;;;;;12367865;28;20042;-43
2021/03/22 13:50:32;;;;;;;9.55;3.28;;;8.30;99.90;;;;;;12379030;28;20606;-42
2021/03/22 13:56:34;;;;;;;9.65;2.88;;;8.30;99.90;;;;;;12370563;28;20058;-44
2021/03/22 14:02:36;;;;;;;7.40;2.63;;;8.10;99.90;;;;;;12370203;28;20073;-43
2021/03/22 14:08:39;;;;;;;4.03;1.70;;;8.20;99.90;;;;;;12378404;28;20439;-43
2021/03/22 14:14:40;;;;;;;9.77;3.25;;;8.20;99.90;;;;;;12375299;28;20058;-43
2021/03/22 14:20:42;;;;;;;10.40;2.60;;;8.20;99.90;;;;;;12369531;28;20053;-43
2021/03/22 14:26:43;;;;;;;5.97;2.30;;;8.10;99.90;;;;;;12372557;28;20054;-45
2021/03/22 14:32:44;;;;;;;7.95;2.65;;;8.10;99.90;;;;;;12372814;28;20050;-43
2021/03/22 14:38:46;;;;;;;8.43;2.15;;;8.10;99.90;;;;;;12368225;28;20463;-43
2021/03/22 14:44:47;;;;;;;6.35;2.05;;;7.90;99.90;;;;;;12371390;28;20046;-43
2021/03/22 14:50:49;;;;;;;4.78;1.95;;;7.80;99.90;;;;;;12360504;28;20500;-43
2021/03/22 14:56:50;;;;;;;5.90;1.77;;;7.70;99.90;;;;;;12361653;28;20120;-42
2021/03/22 15:02:52;;;;;;;6.55;2.35;;;7.60;99.90;;;;;;12366675;28;20096;-42
2021/03/22 15:08:54;;;;;;;8.18;1.95;;;7.50;99.90;;;;;;12367196;28;20560;-44
2021/03/22 15:14:55;;;;;;;4.95;1.95;;;7.40;99.90;;;;;;12374260;28;20128;-44
2021/03/22 15:20:56;;;;;;;5.90;1.77;;;7.40;99.90;;;;;;12370763;28;20182;-43
2021/03/22 15:26:59;;;;;;;7.82;1.92;;;7.30;99.90;;;;;;12367163;28;20501;-42
2021/03/22 15:33:01;;;;;;;4.82;2.15;;;7.30;99.90;;;;;;12368835;28;20441;-42
2021/03/22 15:39:03;;;;;;;6.15;2.20;;;7.30;99.90;;;;;;12374508;28;20478;-43
2021/03/22 15:45:08;;;;;;;8.60;2.63;;;7.30;99.90;;;;;;12373731;28;20284;-43
2021/03/22 15:51:11;;;;;;;4.40;1.90;;;7.20;99.90;;;;;;12363458;28;20789;-43
2021/03/22 15:57:12;;;;;;;5.22;2.22;;;7.30;99.90;;;;;;12373100;28;20054;-42
2021/03/22 16:03:17;;;;;;;7.45;2.40;;;7.30;99.90;;;;;;12357892;28;20534;-44
2021/03/22 16:09:19;;;;;;;6.85;2.55;;;7.30;99.90;;;;;;12363746;28;20746;-43
2021/03/22 16:15:23;;;;;;;8.98;2.55;;;7.30;99.90;;;;;;12369083;28;20054;-43
2021/03/22 16:21:24;;;;;;;6.70;1.93;;;7.30;99.90;;;;;;12377641;28;20124;-43
2021/03/22 16:27:26;;;;;;;9.88;1.92;;;7.20;99.90;;;;;;12362962;28;20065;-43
2021/03/22 16:33:30;;;;;;;6.65;1.83;;;7.20;99.90;;;;;;12372118;28;20050;-43
2021/03/22 16:39:31;;;;;;;9.85;2.00;;;7.10;99.90;;;;;;12372587;28;20226;-43
2021/03/22 16:45:34;;;;;;;6.93;1.83;;;7.30;99.90;;;;;;12377622;28;20046;-43
2021/03/22 16:51:36;;;;;;;5.40;1.85;;;7.10;99.90;;;;;;12385554;28;20049;-43
2021/03/22 16:57:37;;;;;;;7.38;2.05;;;7.10;99.90;;;;;;12367420;28;20049;-42
2021/03/22 17:03:39;;;;;;;7.22;1.85;;;7.10;99.90;;;;;;12379243;28;20050;-42
2021/03/22 17:09:44;;;;;;;10.60;2.20;;;7.10;99.90;;;;;;12374083;28;20632;-41
2021/03/22 17:15:46;;;;;;;8.45;1.98;;;6.90;99.90;;;;;;12382786;28;20053;-42
2021/03/22 17:21:48;;;;;;;4.60;1.70;;;7.00;99.90;;;;;;12376200;28;20046;-42
2021/03/22 17:27:50;;;;;;;6.00;1.88;;;7.00;99.90;;;;;;12363525;28;20054;-41
2021/03/22 17:33:52;;;;;;;6.05;2.20;;;6.90;99.90;;;;;;12377502;28;20096;-41
2021/03/22 17:39:53;;;;;;;5.55;1.90;;;6.80;99.90;;;;;;12371775;28;20470;-42
2021/03/22 17:45:55;;;;;;;6.70;2.50;;;6.80;99.90;;;;;;12368051;28;20042;-44
2021/03/22 17:51:57;;;;;;;6.70;2.78;;;6.80;99.90;;;;;;12374020;28;20046;-42
2021/03/22 17:58:02;;;;;;;7.43;2.90;;;6.80;99.90;;;;;;12361846;28;20117;-43
2021/03/22 18:04:06;;;;;;;8.30;3.20;;;6.80;99.90;;;;;;12362246;28;20490;-42
2021/03/22 18:10:10;;;;;;;6.40;2.93;;;6.80;99.90;;;;;;12364023;28;20682;-41
2021/03/22 18:16:14;;;;;;;5.90;2.80;;;6.70;99.90;;;;;;12362181;28;20085;-44
2021/03/22 18:22:15;;;;;;;7.43;3.00;;;6.70;99.90;;;;;;12350634;28;20046;-41
2021/03/22 18:28:18;;;;;;;8.30;3.03;;;6.70;99.90;;;;;;12368840;28;20462;-42
2021/03/22 18:34:21;;;;;;;7.75;3.00;;;6.70;99.90;;;;;;12363526;28;20050;-42
2021/03/22 18:40:22;;;;;;;6.55;2.40;;;6.60;99.90;;;;;;12366117;28;20495;-41
2021/03/22 18:46:24;;;;;;;6.55;2.33;;;6.60;99.90;;;;;;12368772;28;20502;-42
2021/03/22 18:52:26;;;;;;;10.35;3.10;;;6.60;99.90;;;;;;12367794;28;20123;-42
2021/03/22 18:58:27;;;;;;;7.30;2.40;;;6.70;99.90;;;;;;12365168;28;20082;-41
2021/03/22 19:04:29;;;;;;;8.48;2.63;;;6.70;99.90;;;;;;12363335;28;20050;-42
2021/03/22 19:10:31;;;;;;;7.95;2.40;;;6.60;99.90;;;;;;12370622;28;20115;-41
2021/03/22 19:16:32;;;;;;;7.97;2.60;;;6.70;99.90;;;;;;12374698;28;20132;-41
2021/03/22 19:22:34;;;;;;;9.30;3.00;;;6.60;99.90;;;;;;12363880;28;20073;-43
2021/03/22 19:28:37;;;;;;;5.18;2.75;;;6.70;99.90;;;;;;12373077;28;20185;-44
2021/03/22 19:34:39;;;;;;;8.75;2.35;;;6.60;99.90;;;;;;12366685;28;20042;-42
2021/03/22 19:40:42;;;;;;;7.43;2.63;;;6.70;99.90;;;;;;12367109;28;20069;-43
2021/03/22 19:46:43;;;;;;;6.82;2.55;;;6.60;99.90;;;;;;12360865;28;20063;-41
2021/03/22 19:52:45;;;;;;;6.78;3.03;;;6.70;99.90;;;;;;12363396;28;20053;-42
2021/03/22 19:58:46;;;;;;;7.65;2.58;;;6.60;99.90;;;;;;12365183;28;20145;-42
2021/03/22 20:04:48;;;;;;;5.97;2.30;;;6.60;99.90;;;;;;12372340;28;20092;-41
2021/03/22 20:10:51;;;;;;;8.98;2.80;;;6.70;99.90;;;;;;12364496;28;20157;-41
2021/03/22 20:16:52;;;;;;;7.75;2.53;;;6.60;99.90;;;;;;12367069;28;20069;-42
2021/03/22 20:22:58;;;;;;;10.15;3.03;;;6.50;99.90;;;;;;12369692;28;20525;-41
2021/03/22 20:29:00;;;;;;;11.20;3.05;;;6.50;99.90;;;;;;12374371;28;20500;-41
2021/03/22 20:35:20;;;;;;;8.15;2.80;;;6.40;99.90;;;;;;12370569;28;20116;-42
2021/03/22 20:41:31;;;;;;;6.45;2.75;;;6.40;99.90;;;;;;12357211;28;20137;-43
2021/03/22 20:47:33;;;;;;;4.97;2.30;;;6.50;99.90;;;;;;12361845;28;21029;-41
2021/03/22 20:53:35;;;;;;;8.55;2.78;;;6.40;99.90;;;;;;12356929;28;20042;-42
2021/03/22 20:59:36;;;;;;;9.85;3.63;;;6.40;99.90;;;;;;12367613;28;20104;-43
2021/03/22 21:05:38;;;;;;;7.75;3.25;;;6.50;99.90;;;;;;12363986;28;20124;-41
2021/03/22 21:11:40;;;;;;;8.77;3.10;;;6.50;99.90;;;;;;12374166;28;20141;-41
2021/03/22 21:17:41;;;;;;;9.68;2.88;;;6.30;99.90;;;;;;12369523;28;20521;-43
2021/03/22 21:23:43;;;;;;;6.07;2.58;;;6.30;99.90;;;;;;12374068;28;20057;-41
2021/03/22 21:29:44;;;;;;;9.35;2.70;;;6.30;99.90;;;;;;12374771;28;20048;-42
2021/03/22 21:35:46;;;;;;;9.55;3.17;;;6.40;99.90;;;;;;12371679;28;20060;-42
2021/03/22 21:41:47;;;;;;;7.93;3.40;;;6.20;99.90;;;;;;12374289;28;20092;-41
2021/03/22 21:47:48;;;;;;;10.07;3.15;;;6.20;99.90;;;;;;12373481;28;20100;-41
2021/03/22 21:53:53;;;;;;;8.45;2.65;;;6.30;99.90;;;;;;12373485;28;20057;-41
2021/03/22 21:59:55;;;;;;;10.35;2.90;;;6.30;99.90;;;;;;12369654;28;20536;-42
2021/03/22 22:05:57;;;;;;;9.98;2.92;;;6.30;99.90;;;;;;12374616;28;20043;-42
2021/03/22 22:11:58;;;;;;;9.75;2.50;;;6.30;99.90;;;;;;12378050;28;20104;-42
2021/03/22 22:18:00;;;;;;;9.15;2.60;;;6.20;99.90;;;;;;12376763;28;20536;-42
2021/03/22 22:24:01;;;;;;;8.65;3.20;;;6.20;99.90;;;;;;12380537;28;20057;-41
2021/03/22 22:30:05;;;;;;;6.22;2.33;;;6.30;99.90;;;;;;12371091;28;20146;-43
2021/03/22 22:36:06;;;;;;;5.35;2.35;;;6.10;99.90;;;;;;12370735;28;21002;-43
2021/03/22 22:42:08;;;;;;;6.10;2.30;;;6.20;99.90;;;;;;12366387;28;20054;-42
2021/03/22 22:48:10;;;;;;;8.27;2.20;;;6.20;99.90;;;;;;12373945;28;20574;-42
2021/03/22 22:54:15;;;;;;;6.38;2.08;;;6.00;99.90;;;;;;12375190;28;20651;-42
2021/03/22 23:00:26;;;;;;;5.53;2.08;;;6.00;99.90;;;;;;12367141;28;20120;-42
2021/03/22 23:06:27;;;;;;;7.10;2.00;;;6.00;99.90;;;;;;12366917;28;21127;-43
2021/03/22 23:12:29;;;;;;;6.75;2.30;;;6.00;99.90;;;;;;12371895;28;20133;-42
2021/03/22 23:18:36;;;;;;;6.80;2.15;;;6.10;99.90;;;;;;12371712;28;20471;-41
2021/03/22 23:24:38;;;;;;;5.82;2.10;;;6.20;99.90;;;;;;12379754;28;20074;-45
2021/03/22 23:30:43;;;;;;;6.45;2.15;;;6.00;99.90;;;;;;12365834;28;20459;-42
2021/03/22 23:36:46;;;;;;;7.72;1.98;;;6.00;99.90;;;;;;12367332;28;20064;-41
2021/03/22 23:42:50;;;;;;;4.45;1.90;;;5.90;99.90;;;;;;12359317;28;20154;-42
2021/03/22 23:48:51;;;;;;;5.22;1.92;;;6.00;99.90;;;;;;12373296;28;20149;-42
2021/03/22 23:54:53;;;;;;;7.18;2.10;;;6.00;99.90;;;;;;12357836;28;20046;-41
